Hoosick Junction, New York
Current Conditions -  °F | °C
As of 12:54 PM on Friday 21 Nov 2014 (Local Time) from KDDH Reporting Station
Overcast Overcast  
Wind Chill: 17°   Ceiling: 5000
Heat Index: 28°   Visibility: 10mi
Dew Point: 10°   Wind: 13mph
Humidity: 47%   Direction: 280°W
Pressure: 30.18"   Gusts: 22mph
Location:  42.9226°N, 73.3603°W
Report Text: KDDH 211754Z AUTO 28011G19KT 10SM FEW033 BKN050 OVC060 M02/M12 A3018 RMK AO2 SNE07 SLP231 P0000 60000 T10221122 11022 21061 51015
Loading
Personal Weather Stations






























Interactive Weather Map New forecast layout! Learn more

10-Day Weather Forecast

Advertisements
Track Severe Weather on mobile